createdAt,value
2023-04-18T00:02:36.498Z,8.34
2023-04-18T00:05:40.773Z,8.34
2023-04-18T00:08:44.860Z,8.37
2023-04-18T00:11:49.014Z,8.44
2023-04-18T00:14:53.472Z,8.35
2023-04-18T00:17:57.998Z,8.28
2023-04-18T00:21:03.105Z,8.25
2023-04-18T00:24:07.632Z,8.26
2023-04-18T00:27:11.388Z,8.21
2023-04-18T00:30:15.469Z,8.12
2023-04-18T00:33:19.264Z,8.25
2023-04-18T00:36:23.366Z,8.18
2023-04-18T00:39:27.423Z,8.20
2023-04-18T00:42:31.860Z,8.22
2023-04-18T00:45:37.129Z,8.12
2023-04-18T00:48:41.337Z,8.16
2023-04-18T00:51:45.735Z,8.23
2023-04-18T00:54:49.758Z,8.17
2023-04-18T00:57:53.609Z,8.11
2023-04-18T01:00:57.909Z,8.21
2023-04-18T01:04:02.530Z,8.16
2023-04-18T01:07:08.354Z,8.21
2023-04-18T01:10:12.302Z,8.21
2023-04-18T01:13:20.662Z,8.23
2023-04-18T01:16:24.853Z,8.30
2023-04-18T01:19:29.078Z,8.24
2023-04-18T01:22:33.645Z,8.27
2023-04-18T01:25:38.951Z,8.27
2023-04-18T01:28:42.854Z,8.25
2023-04-18T01:31:46.776Z,8.24
2023-04-18T01:34:51.159Z,8.34
2023-04-18T01:37:55.721Z,8.30
2023-04-18T01:41:05.673Z,8.34
2023-04-18T01:44:09.751Z,8.46
2023-04-18T01:47:14.046Z,8.39
2023-04-18T01:50:18.170Z,8.36
2023-04-18T01:53:24.038Z,8.39
2023-04-18T01:56:28.254Z,8.43
2023-04-18T01:59:32.233Z,8.33
2023-04-18T02:02:36.072Z,8.40
2023-04-18T02:05:40.144Z,8.46
2023-04-18T02:08:44.173Z,8.55
2023-04-18T02:11:48.411Z,8.53
2023-04-18T02:14:53.487Z,8.48
2023-04-18T02:18:00.193Z,8.61
2023-04-18T02:21:04.735Z,8.52
2023-04-18T02:24:08.497Z,8.50
2023-04-18T02:27:12.681Z,8.57
2023-04-18T02:30:16.938Z,8.49
2023-04-18T02:33:20.849Z,8.48
2023-04-18T02:36:28.110Z,8.45
2023-04-18T02:39:32.396Z,8.50
2023-04-18T02:42:36.394Z,8.51
2023-04-18T02:45:40.590Z,8.49
2023-04-18T02:48:44.663Z,8.49
2023-04-18T02:51:48.804Z,8.59
2023-04-18T02:54:52.978Z,8.53
2023-04-18T02:57:57.421Z,8.49
2023-04-18T03:01:01.851Z,8.56
2023-04-18T03:04:05.782Z,8.51
2023-04-18T03:07:09.688Z,8.53
2023-04-18T03:10:13.580Z,8.48
2023-04-18T03:13:18.005Z,8.51
2023-04-18T03:16:22.299Z,8.53
2023-04-18T03:19:26.326Z,8.56
2023-04-18T03:22:30.242Z,8.54
2023-04-18T03:25:34.444Z,8.52
2023-04-18T03:28:38.692Z,8.54
2023-04-18T03:31:42.845Z,8.56
2023-04-18T03:34:47.091Z,8.52
2023-04-18T03:37:51.113Z,8.48
2023-04-18T03:40:55.388Z,8.47
2023-04-18T03:43:59.424Z,8.43
2023-04-18T03:47:03.449Z,8.43
2023-04-18T03:50:08.098Z,8.47
2023-04-18T03:53:11.868Z,8.47
2023-04-18T03:56:16.090Z,8.37
2023-04-18T03:59:20.309Z,8.28
2023-04-18T04:02:24.841Z,8.22
2023-04-18T04:05:29.422Z,8.27
2023-04-18T04:08:33.691Z,8.32
2023-04-18T04:11:37.857Z,8.30
2023-04-18T04:14:41.964Z,8.23
2023-04-18T04:17:46.174Z,8.12
2023-04-18T04:20:50.236Z,8.14
2023-04-18T04:23:54.651Z,8.15
2023-04-18T04:27:00.147Z,8.14
2023-04-18T04:30:05.162Z,8.06
2023-04-18T04:33:09.268Z,8.08
2023-04-18T04:36:18.363Z,8.01
2023-04-18T04:39:23.507Z,8.10
2023-04-18T04:42:28.456Z,8.07
2023-04-18T04:45:33.201Z,8.11
2023-04-18T04:48:37.334Z,8.14
2023-04-18T04:51:41.640Z,8.11
2023-04-18T04:54:46.584Z,8.05
2023-04-18T04:57:50.719Z,8.12
2023-04-18T05:00:55.138Z,8.01
2023-04-18T05:03:59.450Z,8.00
2023-04-18T05:07:03.477Z,8.08
2023-04-18T05:10:07.748Z,8.15
2023-04-18T05:13:11.753Z,8.17
2023-04-18T05:16:15.892Z,8.06
2023-04-18T05:19:23.645Z,8.09
2023-04-18T05:22:27.420Z,8.03
2023-04-18T05:25:32.291Z,8.08
2023-04-18T05:28:36.349Z,8.01
2023-04-18T05:31:40.200Z,8.03
2023-04-18T05:34:44.436Z,7.98
2023-04-18T05:37:48.782Z,7.97
2023-04-18T05:40:55.440Z,8.01
2023-04-18T05:44:05.421Z,8.03
2023-04-18T05:47:09.956Z,8.16
2023-04-18T05:50:14.064Z,8.11
2023-04-18T05:53:18.334Z,8.23
2023-04-18T05:56:22.439Z,8.15
2023-04-18T05:59:29.561Z,8.24
2023-04-18T06:02:33.693Z,8.39
2023-04-18T06:05:37.934Z,8.48
2023-04-18T06:08:42.035Z,8.69
2023-04-18T06:11:46.065Z,8.82
2023-04-18T06:14:50.839Z,8.80
2023-04-18T06:17:55.441Z,8.93
2023-04-18T06:20:59.714Z,8.94
2023-04-18T06:24:03.753Z,9.13
2023-04-18T06:27:12.745Z,9.25
2023-04-18T06:30:25.048Z,9.32
2023-04-18T06:33:29.381Z,9.28
2023-04-18T06:36:33.534Z,9.32
2023-04-18T06:39:37.632Z,9.37
2023-04-18T06:42:42.492Z,9.33
2023-04-18T06:45:46.812Z,9.11
2023-04-18T06:48:51.621Z,8.97
2023-04-18T06:51:55.984Z,9.08
2023-04-18T06:54:59.952Z,9.44
2023-04-18T06:58:05.437Z,9.56
2023-04-18T07:01:09.896Z,9.74
2023-04-18T07:04:14.823Z,9.67
2023-04-18T07:07:20.382Z,9.92
2023-04-18T07:10:24.882Z,10.07
2023-04-18T07:13:28.966Z,10.17
2023-04-18T07:16:33.349Z,10.18
2023-04-18T07:19:37.793Z,9.73
2023-04-18T07:22:41.996Z,9.51
2023-04-18T07:25:46.453Z,9.38
2023-04-18T07:28:50.495Z,9.32
2023-04-18T07:31:54.613Z,9.20
2023-04-18T07:34:59.224Z,9.37
2023-04-18T07:38:03.339Z,9.47
2023-04-18T07:41:07.355Z,9.54
2023-04-18T07:44:11.636Z,9.68
2023-04-18T07:47:16.099Z,9.86
2023-04-18T07:50:20.215Z,9.79
2023-04-18T07:53:24.299Z,9.68
2023-04-18T07:56:28.479Z,9.66
2023-04-18T07:59:32.926Z,9.78
2023-04-18T08:02:37.002Z,9.96
2023-04-18T08:05:42.983Z,10.06
2023-04-18T08:08:47.444Z,10.24
2023-04-18T08:11:51.480Z,10.25
2023-04-18T08:14:55.607Z,10.65
2023-04-18T08:18:00.499Z,10.84
2023-04-18T08:21:05.257Z,10.85
2023-04-18T08:24:09.636Z,10.61
2023-04-18T08:27:13.596Z,10.82
2023-04-18T08:30:17.631Z,11.01
2023-04-18T08:33:23.302Z,11.03
2023-04-18T08:36:27.753Z,11.09
2023-04-18T08:39:32.278Z,10.81
2023-04-18T08:42:38.640Z,10.68
2023-04-18T08:45:43.994Z,10.56
2023-04-18T08:48:49.513Z,10.42
2023-04-18T08:51:53.370Z,10.27
2023-04-18T08:54:57.507Z,10.23
2023-04-18T08:58:02.130Z,10.29
2023-04-18T09:01:07.199Z,10.27
2023-04-18T09:04:13.919Z,10.25
2023-04-18T09:07:20.541Z,10.22
2023-04-18T09:10:36.660Z,10.25
2023-04-18T09:13:47.415Z,10.47
2023-04-18T09:16:51.627Z,10.56
2023-04-18T09:19:56.684Z,10.68
2023-04-18T09:23:03.870Z,10.65
2023-04-18T09:26:08.178Z,10.83
2023-04-18T09:29:13.509Z,10.86
2023-04-18T09:32:29.731Z,10.99
2023-04-18T09:35:34.638Z,10.92
2023-04-18T09:38:40.874Z,10.91
2023-04-18T09:41:58.596Z,10.82
2023-04-18T09:45:07.775Z,10.61
2023-04-18T09:48:11.759Z,10.78
2023-04-18T09:51:16.587Z,10.87
2023-04-18T09:54:24.014Z,11.05
2023-04-18T09:57:30.917Z,11.46
2023-04-18T10:00:37.317Z,11.54
2023-04-18T10:03:47.945Z,11.68
2023-04-18T10:06:53.630Z,11.43
2023-04-18T10:09:57.874Z,11.46
2023-04-18T10:13:03.048Z,11.79
2023-04-18T10:16:07.590Z,12.09
2023-04-18T10:19:26.087Z,12.09
2023-04-18T10:22:30.344Z,12.00
2023-04-18T10:25:34.167Z,12.10
2023-04-18T10:28:56.321Z,12.06
2023-04-18T10:32:06.669Z,12.00
2023-04-18T10:35:11.181Z,12.13
2023-04-18T10:38:17.334Z,12.12
2023-04-18T10:41:28.959Z,12.07
2023-04-18T10:44:33.429Z,11.97
2023-04-18T10:47:37.459Z,12.18
2023-04-18T10:51:16.930Z,12.61
2023-04-18T10:55:02.606Z,12.51
2023-04-18T10:58:06.631Z,12.25
2023-04-18T11:01:15.736Z,12.28
2023-04-18T11:04:20.827Z,12.19
2023-04-18T11:07:39.486Z,12.18
2023-04-18T11:10:43.575Z,12.16
2023-04-18T11:13:55.588Z,12.65
2023-04-18T11:16:59.750Z,12.78
2023-04-18T11:20:14.142Z,12.88
2023-04-18T11:23:23.727Z,13.07
2023-04-18T11:26:28.992Z,13.29
2023-04-18T11:29:33.068Z,13.62
2023-04-18T11:32:37.321Z,13.66
2023-04-18T11:35:43.600Z,13.26
2023-04-18T11:38:47.848Z,13.28
2023-04-18T11:41:52.063Z,13.51
2023-04-18T11:44:56.109Z,13.19
2023-04-18T11:48:00.915Z,13.40
2023-04-18T11:51:10.150Z,13.46
2023-04-18T11:54:36.954Z,13.47
2023-04-18T11:57:41.870Z,13.39
2023-04-18T12:00:45.667Z,13.32
2023-04-18T12:04:04.073Z,12.99
2023-04-18T12:07:08.087Z,12.97
2023-04-18T12:10:31.014Z,12.98
2023-04-18T12:13:35.152Z,12.95
2023-04-18T12:16:41.592Z,12.72
2023-04-18T12:19:46.561Z,12.81
2023-04-18T12:22:53.029Z,12.86
2023-04-18T12:26:01.421Z,12.77
2023-04-18T12:29:05.608Z,12.74
2023-04-18T12:32:09.728Z,12.72
2023-04-18T12:35:14.471Z,12.71
2023-04-18T12:38:23.516Z,12.57
2023-04-18T12:41:27.508Z,12.44
2023-04-18T12:44:31.472Z,12.28
2023-04-18T12:47:35.748Z,12.24
2023-04-18T12:50:40.745Z,12.24
2023-04-18T12:53:44.737Z,12.17
2023-04-18T12:56:49.197Z,12.04
2023-04-18T12:59:53.368Z,11.97
2023-04-18T13:02:57.753Z,11.98
2023-04-18T13:06:02.202Z,12.05
2023-04-18T13:09:06.661Z,11.98
2023-04-18T13:12:11.572Z,11.90
2023-04-18T13:15:16.238Z,11.91
2023-04-18T13:18:20.767Z,11.86
2023-04-18T13:21:25.918Z,11.85
2023-04-18T13:24:29.952Z,11.80
2023-04-18T13:27:34.479Z,11.75
2023-04-18T13:30:38.641Z,11.72
2023-04-18T13:33:42.621Z,11.68
2023-04-18T13:36:46.792Z,11.62
2023-04-18T13:39:51.570Z,11.59
2023-04-18T13:42:55.796Z,11.61
2023-04-18T13:46:00.372Z,11.60
2023-04-18T13:49:04.454Z,11.63
2023-04-18T13:52:08.769Z,11.66
2023-04-18T13:55:12.796Z,11.73
2023-04-18T13:58:17.191Z,11.65
2023-04-18T14:01:22.126Z,11.56
2023-04-18T14:04:27.037Z,11.55
2023-04-18T14:07:31.324Z,11.57
2023-04-18T14:10:35.670Z,11.53
2023-04-18T14:13:39.615Z,11.56
2023-04-18T14:16:43.574Z,11.50
2023-04-18T14:19:48.772Z,11.38
2023-04-18T14:22:53.352Z,11.39
2023-04-18T14:25:57.548Z,11.32
2023-04-18T14:29:02.983Z,11.39
2023-04-18T14:32:07.714Z,11.45
2023-04-18T14:35:11.525Z,11.33
2023-04-18T14:38:16.141Z,11.30
2023-04-18T14:41:20.673Z,11.19
2023-04-18T14:44:27.290Z,11.15
2023-04-18T14:47:34.774Z,11.10
2023-04-18T14:50:39.310Z,11.07
2023-04-18T14:53:44.808Z,11.05
2023-04-18T14:56:48.694Z,11.01
2023-04-18T14:59:54.527Z,11.01
2023-04-18T15:02:58.631Z,10.87
2023-04-18T15:06:02.709Z,10.88
2023-04-18T15:09:06.989Z,10.85
2023-04-18T15:12:10.918Z,10.83
2023-04-18T15:15:14.839Z,10.81
2023-04-18T15:18:19.114Z,10.93
2023-04-18T15:21:23.212Z,10.93
2023-04-18T15:24:27.589Z,11.05
2023-04-18T15:27:31.770Z,11.00
2023-04-18T15:30:36.285Z,10.97
2023-04-18T15:33:40.368Z,10.96
2023-04-18T15:36:46.656Z,10.82
2023-04-18T15:39:51.185Z,10.84
2023-04-18T15:42:56.066Z,10.79
2023-04-18T15:46:00.265Z,10.80
2023-04-18T15:49:04.663Z,10.82
2023-04-18T15:52:08.785Z,10.81
2023-04-18T15:55:13.473Z,10.87
2023-04-18T15:58:17.689Z,10.89
2023-04-18T16:01:22.799Z,10.93
2023-04-18T16:04:27.073Z,10.85
2023-04-18T16:07:31.321Z,10.84
2023-04-18T16:10:36.840Z,10.76
2023-04-18T16:13:41.215Z,10.73
2023-04-18T16:16:46.017Z,10.84
2023-04-18T16:19:50.119Z,10.71
2023-04-18T16:22:54.293Z,10.72
2023-04-18T16:25:58.464Z,10.72
2023-04-18T16:29:03.136Z,10.71
2023-04-18T16:32:08.359Z,10.73
2023-04-18T16:35:12.207Z,10.74
2023-04-18T16:38:16.474Z,10.75
2023-04-18T16:41:20.845Z,10.74
2023-04-18T16:44:25.316Z,10.75
2023-04-18T16:47:30.288Z,10.69
2023-04-18T16:50:34.306Z,10.67
2023-04-18T16:53:38.180Z,10.72
2023-04-18T16:56:44.538Z,10.73
2023-04-18T16:59:48.872Z,10.77
2023-04-18T17:02:55.352Z,10.72
2023-04-18T17:06:00.812Z,10.69
2023-04-18T17:09:06.415Z,10.76
2023-04-18T17:12:10.676Z,10.75
2023-04-18T17:15:19.077Z,10.78
2023-04-18T17:18:23.214Z,10.74
2023-04-18T17:21:27.449Z,10.80
2023-04-18T17:24:33.901Z,10.79
2023-04-18T17:27:40.670Z,10.79
2023-04-18T17:30:45.051Z,10.78
2023-04-18T17:33:51.987Z,10.78
2023-04-18T17:36:56.089Z,10.77
2023-04-18T17:40:01.324Z,10.82
2023-04-18T17:43:05.305Z,10.84
2023-04-18T17:46:09.229Z,10.83
2023-04-18T17:49:13.690Z,10.86
2023-04-18T17:52:18.022Z,10.89
2023-04-18T17:55:22.135Z,10.86
2023-04-18T17:58:26.776Z,10.86
2023-04-18T18:01:31.650Z,10.86
2023-04-18T18:04:35.940Z,10.83
2023-04-18T18:07:43.055Z,10.81
2023-04-18T18:10:48.248Z,10.83
2023-04-18T18:13:54.523Z,10.82
2023-04-18T18:16:58.305Z,10.82
2023-04-18T18:20:02.440Z,10.83
2023-04-18T18:23:07.344Z,10.84
2023-04-18T18:26:11.962Z,10.84
2023-04-18T18:29:16.052Z,10.90
2023-04-18T18:32:20.468Z,10.85
2023-04-18T18:35:24.560Z,10.88
2023-04-18T18:38:28.897Z,10.86
2023-04-18T18:41:33.355Z,10.88
2023-04-18T18:44:37.418Z,10.84
2023-04-18T18:47:41.382Z,10.86
2023-04-18T18:50:45.456Z,10.89
2023-04-18T18:53:50.004Z,10.86
2023-04-18T18:56:53.875Z,10.88
2023-04-18T18:59:57.620Z,10.95
2023-04-18T19:03:01.834Z,10.93
2023-04-18T19:06:07.297Z,10.96
2023-04-18T19:09:12.176Z,10.92
2023-04-18T19:12:16.341Z,10.92
2023-04-18T19:15:20.720Z,10.91
2023-04-18T19:18:24.976Z,10.94
2023-04-18T19:21:29.898Z,10.97
2023-04-18T19:24:34.978Z,10.97
2023-04-18T19:27:39.136Z,11.01
2023-04-18T19:30:43.395Z,10.98
2023-04-18T19:33:47.568Z,11.02
2023-04-18T19:36:51.448Z,11.01
2023-04-18T19:39:55.652Z,11.00
2023-04-18T19:42:59.673Z,10.97
2023-04-18T19:46:03.893Z,10.98
2023-04-18T19:49:07.923Z,10.99
2023-04-18T19:52:12.123Z,10.98
2023-04-18T19:55:16.241Z,10.97
2023-04-18T19:58:38.780Z,10.97
2023-04-18T20:01:42.764Z,10.97
2023-04-18T20:04:46.672Z,10.97
2023-04-18T20:07:51.236Z,10.97
2023-04-18T20:10:56.165Z,10.99
2023-04-18T20:14:00.618Z,10.96
2023-04-18T20:17:04.345Z,10.98
2023-04-18T20:20:09.427Z,10.97
2023-04-18T20:23:14.379Z,10.98
2023-04-18T20:26:19.348Z,10.98
2023-04-18T20:29:23.863Z,10.96
2023-04-18T20:32:28.056Z,10.98
2023-04-18T20:35:32.072Z,11.00
2023-04-18T20:38:36.915Z,10.95
2023-04-18T20:41:46.693Z,10.92
2023-04-18T20:44:51.286Z,10.93
2023-04-18T20:47:56.852Z,10.94
2023-04-18T20:51:01.159Z,10.90
2023-04-18T20:54:05.627Z,10.89
2023-04-18T20:57:09.475Z,10.91
2023-04-18T21:00:14.240Z,10.93
2023-04-18T21:03:18.823Z,10.96
2023-04-18T21:06:23.192Z,10.96
2023-04-18T21:09:27.481Z,10.94
2023-04-18T21:12:31.766Z,10.96
2023-04-18T21:15:36.172Z,11.03
2023-04-18T21:18:40.054Z,10.98
2023-04-18T21:21:44.241Z,10.97
2023-04-18T21:24:48.449Z,10.97
2023-04-18T21:27:52.669Z,10.91
2023-04-18T21:30:57.040Z,10.90
2023-04-18T21:34:04.196Z,10.92
2023-04-18T21:37:08.501Z,10.92
2023-04-18T21:40:12.694Z,10.93
2023-04-18T21:43:16.790Z,11.01
2023-04-18T21:46:21.117Z,10.97
2023-04-18T21:49:25.572Z,10.97
2023-04-18T21:52:29.897Z,10.90
2023-04-18T21:55:34.273Z,10.92
2023-04-18T21:58:38.455Z,10.95
2023-04-18T22:01:42.940Z,10.90
2023-04-18T22:04:48.090Z,10.86
2023-04-18T22:07:58.034Z,10.78
2023-04-18T22:11:04.736Z,10.78
2023-04-18T22:14:09.956Z,10.84
2023-04-18T22:17:14.327Z,10.88
2023-04-18T22:20:18.562Z,10.78
2023-04-18T22:23:22.588Z,10.72
2023-04-18T22:26:26.668Z,10.67
2023-04-18T22:29:30.842Z,10.67
2023-04-18T22:32:35.588Z,10.65
2023-04-18T22:35:39.636Z,10.71
2023-04-18T22:38:43.738Z,10.60
2023-04-18T22:41:47.923Z,10.56
2023-04-18T22:44:52.291Z,10.64
2023-04-18T22:47:56.468Z,10.57
2023-04-18T22:51:01.884Z,10.52
2023-04-18T22:54:06.158Z,10.56
2023-04-18T22:57:10.872Z,10.48
2023-04-18T23:00:15.374Z,10.44
2023-04-18T23:03:19.849Z,10.38
2023-04-18T23:06:23.869Z,10.46
2023-04-18T23:09:31.267Z,10.31
2023-04-18T23:12:35.084Z,10.34
2023-04-18T23:15:39.214Z,10.37
2023-04-18T23:18:43.421Z,10.27
2023-04-18T23:21:49.580Z,10.38
2023-04-18T23:24:55.064Z,10.23
2023-04-18T23:27:59.142Z,10.25
2023-04-18T23:31:03.273Z,10.30
2023-04-18T23:34:07.465Z,10.24
2023-04-18T23:37:11.947Z,10.19
2023-04-18T23:40:16.228Z,10.16
2023-04-18T23:43:21.009Z,10.10
2023-04-18T23:46:25.835Z,10.13
2023-04-18T23:49:30.660Z,10.08
2023-04-18T23:52:34.958Z,10.03
2023-04-18T23:55:39.378Z,9.98
2023-04-18T23:58:43.655Z,9.97
